Time;durP1;ratioP1;P1;durP2;ratioP2;P2;SDS_P1;SDS_P2;PMS_P1;PMS_P2;Temp;Humidity;BMP_temperature;BMP_pressure;BME280_temperature;BME280_humidity;BME280_pressure;Samples;Min_cycle;Max_cycle;Signal;HPM_P1;HPM_P2
2022/04/23 00:01:35;;;;;;;6.87;3.23;;;;;;;5.23;43.92;101677.94;5072205;28;20791;-63
2022/04/23 00:04:01;;;;;;;6.60;2.80;;;;;;;5.18;43.98;101672.94;5072070;28;20388;-61
2022/04/23 00:06:27;;;;;;;4.80;2.30;;;;;;;5.16;44.15;101672.22;5071979;28;20046;-61
2022/04/23 00:08:52;;;;;;;6.87;2.07;;;;;;;5.13;43.53;101664.50;5071731;28;20037;-62
2022/04/23 00:11:18;;;;;;;5.93;2.13;;;;;;;5.11;44.11;101655.00;5072134;28;20121;-61
2022/04/23 00:13:44;;;;;;;9.87;2.47;;;;;;;5.08;43.82;101656.06;5071812;28;20090;-62
2022/04/23 00:16:10;;;;;;;4.33;2.43;;;;;;;5.11;44.82;101655.84;5071869;28;20267;-62
2022/04/23 00:18:36;;;;;;;16.43;3.03;;;;;;;5.09;44.78;101659.53;5071858;28;20033;-61
2022/04/23 00:21:03;;;;;;;5.27;1.70;;;;;;;5.08;44.54;101649.94;5071687;28;20327;-63
2022/04/23 00:23:31;;;;;;;5.50;2.20;;;;;;;4.92;44.14;101623.75;5071666;28;20037;-61
2022/04/23 00:26:00;;;;;;;8.37;2.13;;;;;;;4.99;44.44;101643.50;5071556;28;20279;-60
2022/04/23 00:28:25;;;;;;;5.23;2.60;;;;;;;5.01;44.88;101652.16;5071834;28;20432;-62
2022/04/23 00:30:52;;;;;;;9.37;2.70;;;;;;;4.98;44.51;101649.72;5071622;28;20809;-61
2022/04/23 00:33:19;;;;;;;8.63;2.40;;;;;;;4.92;44.38;101634.31;5071730;28;20029;-63
2022/04/23 00:35:45;;;;;;;5.53;2.63;;;;;;;4.91;44.02;101640.50;5071688;28;20326;-60
2022/04/23 00:38:10;;;;;;;7.10;1.90;;;;;;;4.95;44.83;101639.38;5070940;28;20275;-62
2022/04/23 00:40:38;;;;;;;7.43;2.30;;;;;;;4.88;45.46;101622.25;5071829;28;20383;-62
2022/04/23 00:43:10;;;;;;;12.00;2.70;;;;;;;4.93;45.38;101641.28;5071905;28;20032;-63
2022/04/23 00:45:36;;;;;;;6.63;2.43;;;;;;;4.88;46.23;101635.44;5071957;28;20269;-62
2022/04/23 00:48:02;;;;;;;12.13;3.93;;;;;;;4.89;46.28;101642.41;5071568;28;20262;-61
2022/04/23 00:50:28;;;;;;;6.87;2.43;;;;;;;4.82;46.41;101634.06;5071493;28;20343;-61
2022/04/23 00:52:58;;;;;;;8.47;3.47;;;;;;;4.78;45.72;101639.66;5071524;28;20713;-62
2022/04/23 00:55:23;;;;;;;12.20;3.77;;;;;;;4.78;45.39;101642.31;5071505;28;20055;-61
2022/04/23 00:57:50;;;;;;;5.60;3.73;;;;;;;4.80;44.70;101635.13;5071473;28;20353;-61
2022/04/23 01:00:18;;;;;;;9.13;2.73;;;;;;;4.82;45.58;101642.00;5071299;28;20403;-61
2022/04/23 01:02:44;;;;;;;7.77;2.93;;;;;;;4.76;45.93;101631.00;5071334;28;20695;-60
2022/04/23 01:05:10;;;;;;;6.23;3.13;;;;;;;4.77;44.96;101645.91;5071167;28;20320;-61
2022/04/23 01:07:45;;;;;;;4.73;2.53;;;;;;;4.79;43.80;101641.34;5071126;28;20067;-63
2022/04/23 01:10:11;;;;;;;3.27;1.80;;;;;;;4.85;43.75;101643.56;5071364;28;20271;-62
2022/04/23 01:12:38;;;;;;;5.97;2.67;;;;;;;4.79;43.75;101636.09;5071378;28;20275;-63
2022/04/23 01:15:10;;;;;;;11.20;2.53;;;;;;;4.83;44.09;101645.47;5071238;28;20298;-61
2022/04/23 01:17:36;;;;;;;4.97;2.30;;;;;;;4.85;44.15;101651.50;5071122;28;20306;-63
2022/04/23 01:20:15;;;;;;;5.37;3.13;;;;;;;4.86;43.91;101640.00;5071087;28;20301;-62
2022/04/23 01:22:42;;;;;;;8.73;4.00;;;;;;;4.88;44.49;101653.91;5071189;28;20266;-61
2022/04/23 01:25:12;;;;;;;7.63;3.23;;;;;;;4.84;44.35;101648.00;5071323;28;20064;-62
2022/04/23 01:27:43;;;;;;;6.53;2.60;;;;;;;4.84;44.50;101644.53;5071161;28;20348;-64
2022/04/23 01:30:12;;;;;;;14.60;3.03;;;;;;;4.78;44.52;101640.50;5071261;28;20251;-62
2022/04/23 01:32:38;;;;;;;10.57;3.57;;;;;;;4.78;44.71;101643.16;5071325;28;20298;-61
2022/04/23 01:35:04;;;;;;;9.93;4.87;;;;;;;4.76;45.04;101645.06;5071021;28;20800;-62
2022/04/23 01:37:30;;;;;;;10.30;3.43;;;;;;;4.75;45.13;101642.53;5071006;28;20038;-62
2022/04/23 01:39:56;;;;;;;10.87;4.70;;;;;;;4.72;44.56;101635.66;5071161;28;20295;-61
2022/04/23 01:42:21;;;;;;;13.63;5.80;;;;;;;4.76;45.50;101641.56;5070969;28;20266;-60
2022/04/23 01:44:48;;;;;;;14.63;4.03;;;;;;;4.69;45.08;101627.94;5070912;28;20036;-62
2022/04/23 01:47:14;;;;;;;8.90;3.47;;;;;;;4.60;44.39;101633.81;5070883;28;20045;-61
2022/04/23 01:49:40;;;;;;;9.37;3.70;;;;;;;4.62;44.87;101632.78;5071597;28;20638;-61
2022/04/23 01:52:06;;;;;;;7.83;3.30;;;;;;;4.63;44.69;101634.50;5074562;28;20090;-62
2022/04/23 01:54:32;;;;;;;7.53;3.37;;;;;;;4.64;45.05;101645.91;5074208;28;20295;-62
2022/04/23 01:56:59;;;;;;;7.73;3.67;;;;;;;4.61;44.97;101635.50;5074342;28;20094;-63
2022/04/23 01:59:25;;;;;;;7.53;3.13;;;;;;;4.59;45.36;101635.63;5074275;28;20274;-62
2022/04/23 02:01:51;;;;;;;4.27;2.43;;;;;;;4.62;45.47;101626.66;5074277;28;20282;-63
2022/04/23 02:04:17;;;;;;;7.80;3.90;;;;;;;4.65;46.35;101632.59;5074316;28;20119;-63
2022/04/23 02:06:43;;;;;;;6.73;2.70;;;;;;;4.63;46.77;101629.22;5074181;28;20527;-61
2022/04/23 02:09:08;;;;;;;9.07;3.03;;;;;;;4.59;47.36;101624.22;5074175;28;20028;-62
2022/04/23 02:11:34;;;;;;;4.50;2.87;;;;;;;4.38;48.15;101605.41;5074309;28;20036;-61
2022/04/23 02:14:02;;;;;;;5.47;2.93;;;;;;;4.50;48.65;101609.88;5073983;28;20081;-62
2022/04/23 02:16:28;;;;;;;8.98;2.63;;;;;;;4.51;48.44;101614.19;5074085;28;20051;-61
2022/04/23 02:18:55;;;;;;;5.53;3.10;;;;;;;4.52;48.94;101618.53;5074025;28;20485;-64
2022/04/23 02:21:21;;;;;;;6.50;2.63;;;;;;;4.51;49.18;101616.84;5072667;28;20271;-61
2022/04/23 02:23:47;;;;;;;4.90;2.60;;;;;;;4.56;49.91;101627.06;5073749;28;20255;-62
2022/04/23 02:26:13;;;;;;;3.63;2.50;;;;;;;4.52;50.29;101621.16;5073447;28;20063;-62
2022/04/23 02:28:38;;;;;;;5.20;2.63;;;;;;;4.52;50.80;101625.59;5072573;28;20290;-61
2022/04/23 02:31:07;;;;;;;4.20;2.40;;;;;;;4.46;50.47;101621.56;5073960;28;20038;-62
2022/04/23 02:33:33;;;;;;;;;;;;;;;4.56;50.72;101630.56;5074230;28;20059;-62
2022/04/23 02:35:59;;;;;;;4.53;2.43;;;;;;;4.52;51.98;101631.72;5073724;28;20371;-63
2022/04/23 02:38:24;;;;;;;4.10;2.40;;;;;;;4.43;51.98;101621.78;5075176;28;20029;-62
2022/04/23 02:40:50;;;;;;;3.87;2.40;;;;;;;4.49;52.00;101638.97;5074316;28;20118;-61
2022/04/23 02:43:15;;;;;;;4.83;2.87;;;;;;;4.47;52.93;101638.25;5073580;28;20024;-63
2022/04/23 02:45:41;;;;;;;5.80;2.90;;;;;;;4.44;53.40;101636.66;5074042;28;20032;-62
2022/04/23 02:48:07;;;;;;;3.43;2.53;;;;;;;4.38;53.63;101623.88;5073402;28;20127;-63
2022/04/23 02:50:38;;;;;;;4.27;2.93;;;;;;;4.40;53.70;101637.81;5073182;28;20063;-62
2022/04/23 02:53:08;;;;;;;4.67;2.80;;;;;;;4.39;54.13;101644.03;5073316;28;20048;-62
2022/04/23 02:55:34;;;;;;;6.43;2.80;;;;;;;4.43;53.86;101639.41;5071903;28;20275;-61
2022/04/23 02:58:09;;;;;;;5.83;2.93;;;;;;;4.45;54.89;101633.06;5073402;28;20278;-61
2022/04/23 03:00:38;;;;;;;4.50;2.60;;;;;;;4.39;55.75;101635.28;5073081;28;20259;-61
2022/04/23 03:03:05;;;;;;;6.40;2.80;;;;;;;4.35;56.96;101634.63;5073528;28;20255;-61
2022/04/23 03:05:31;;;;;;;7.97;2.93;;;;;;;4.30;58.07;101626.16;5073327;28;20695;-62
2022/04/23 03:07:59;;;;;;;5.30;2.83;;;;;;;4.30;59.18;101631.44;5073310;28;20265;-64
2022/04/23 03:10:26;;;;;;;4.32;2.55;;;;;;;4.23;60.43;101624.88;5073014;28;20255;-62
2022/04/23 03:12:52;;;;;;;4.03;2.60;;;;;;;4.16;61.81;101624.44;5073113;28;20130;-62
2022/04/23 03:15:17;;;;;;;6.83;3.07;;;;;;;4.07;62.45;101613.66;5073037;28;20377;-60
2022/04/23 03:17:45;;;;;;;4.27;2.70;;;;;;;4.15;62.71;101621.91;5072791;28;20102;-61
2022/04/23 03:20:12;;;;;;;7.33;3.23;;;;;;;4.18;64.00;101633.09;5072813;28;20350;-61
2022/04/23 03:22:42;;;;;;;10.20;3.37;;;;;;;4.17;64.18;101627.94;5072653;28;20357;-61
2022/04/23 03:25:10;;;;;;;3.53;2.40;;;;;;;4.17;64.81;101633.19;5072688;28;20313;-63
2022/04/23 03:27:37;;;;;;;6.43;2.70;;;;;;;4.20;65.27;101641.75;5072686;28;20776;-61
2022/04/23 03:30:04;;;;;;;3.63;3.30;;;;;;;4.46;65.22;101641.84;5072541;28;20275;-62
2022/04/23 03:32:31;;;;;;;8.30;3.40;;;;;;;5.09;63.45;101620.78;5072490;28;20064;-61
2022/04/23 03:34:59;;;;;;;4.67;3.17;;;;;;;5.46;62.37;101628.75;5072377;28;20740;-61
2022/04/23 03:37:24;;;;;;;7.37;3.43;;;;;;;5.77;61.37;101628.25;5072525;28;20266;-61
2022/04/23 03:39:50;;;;;;;5.60;3.10;;;;;;;6.03;61.41;101642.28;5072435;28;20717;-62
2022/04/23 03:42:15;;;;;;;3.87;3.20;;;;;;;6.42;60.13;101630.56;5072586;28;20562;-62
2022/04/23 03:44:41;;;;;;;5.87;3.20;;;;;;;6.70;59.30;101639.09;5072349;28;20035;-61
2022/04/23 03:47:06;;;;;;;3.37;2.83;;;;;;;6.71;59.15;101651.38;5072305;28;20059;-61
2022/04/23 03:49:32;;;;;;;8.63;3.20;;;;;;;6.60;59.34;101635.44;5072155;28;20325;-61
2022/04/23 03:51:58;;;;;;;5.97;3.47;;;;;;;6.60;60.20;101632.78;5072434;28;20039;-63
2022/04/23 03:54:24;;;;;;;4.57;2.80;;;;;;;6.58;60.50;101642.63;5071009;28;20135;-62
2022/04/23 03:56:50;;;;;;;5.43;3.20;;;;;;;6.42;61.46;101651.75;5072314;28;20036;-63
2022/04/23 03:59:20;;;;;;;4.23;3.40;;;;;;;6.10;62.19;101655.91;5072195;28;20262;-66
2022/04/23 04:01:46;;;;;;;5.93;3.60;;;;;;;5.89;63.13;101642.41;5072260;28;20028;-63
2022/04/23 04:04:12;;;;;;;6.37;3.33;;;;;;;5.67;63.53;101651.03;5071758;28;20262;-61
2022/04/23 04:06:39;;;;;;;5.97;3.50;;;;;;;5.33;65.21;101649.09;5071957;28;20281;-62
2022/04/23 04:09:04;;;;;;;3.97;3.17;;;;;;;5.08;66.21;101648.13;5072037;28;20118;-64
2022/04/23 04:12:01;;;;;;;7.07;2.77;;;;;;;4.89;66.56;101650.34;5072221;28;20310;-63
2022/04/23 04:14:15;;;;;;;6.93;3.97;;;;;;;4.69;67.48;101648.22;5071131;28;20033;-61
2022/04/23 04:16:40;;;;;;;9.33;3.00;;;;;;;4.54;67.86;101650.06;5072029;28;20258;-64
2022/04/23 04:19:06;;;;;;;6.73;3.00;;;;;;;4.55;68.45;101657.03;5070274;28;20043;-64
2022/04/23 04:21:32;;;;;;;5.70;3.67;;;;;;;4.46;68.20;101636.56;5071942;28;20198;-62
2022/04/23 04:23:59;;;;;;;3.60;3.17;;;;;;;4.61;68.30;101654.81;5071831;28;20119;-62
2022/04/23 04:26:25;;;;;;;4.33;2.90;;;;;;;4.66;67.96;101660.66;5071579;28;20294;-62
2022/04/23 04:28:51;;;;;;;7.10;3.40;;;;;;;4.61;68.08;101672.44;5071518;28;20294;-62
2022/04/23 04:34:00;;;;;;;3.40;2.63;;;;;;;4.49;68.92;101676.75;5071638;28;20124;-61
2022/04/23 04:36:25;;;;;;;4.63;3.10;;;;;;;4.56;68.61;101675.41;5071670;28;20754;-63
2022/04/23 04:38:51;;;;;;;6.17;2.87;;;;;;;4.53;68.97;101680.88;5071553;28;20495;-62
2022/04/23 04:41:16;;;;;;;6.57;3.17;;;;;;;4.46;68.78;101666.41;5071518;28;20040;-63
2022/04/23 04:43:42;;;;;;;5.50;3.17;;;;;;;4.39;68.65;101653.75;5071494;28;20037;-62
2022/04/23 04:46:08;;;;;;;4.43;2.87;;;;;;;4.50;68.99;101670.53;5071990;28;20434;-61
2022/04/23 04:48:33;;;;;;;6.33;3.20;;;;;;;4.57;68.83;101682.38;5071626;28;20055;-62
2022/04/23 04:50:59;;;;;;;7.60;3.00;;;;;;;4.55;68.84;101676.34;5071611;28;20770;-61
2022/04/23 04:53:24;;;;;;;12.27;3.60;;;;;;;4.53;68.25;101680.03;5071558;28;20044;-62
2022/04/23 04:55:50;;;;;;;4.40;3.23;;;;;;;4.53;68.60;101683.53;5071524;28;20074;-64
2022/04/23 04:58:15;;;;;;;7.43;2.90;;;;;;;4.53;68.44;101680.03;5071337;28;20491;-60
2022/04/23 05:00:41;;;;;;;7.93;3.30;;;;;;;4.51;68.48;101672.22;5071233;28;20046;-61
2022/04/23 05:03:06;;;;;;;3.33;2.97;;;;;;;4.61;68.58;101680.38;5071763;28;20123;-62
2022/04/23 05:05:32;;;;;;;5.43;3.40;;;;;;;4.64;68.13;101678.41;5071407;28;20036;-62
2022/04/23 05:07:57;;;;;;;6.40;3.03;;;;;;;4.78;67.45;101673.97;5071272;28;20040;-61
2022/04/23 05:10:23;;;;;;;8.20;2.97;;;;;;;4.83;67.27;101667.44;5071301;28;20098;-64
2022/04/23 05:12:48;;;;;;;7.23;2.73;;;;;;;4.92;66.93;101681.81;5071125;28;20395;-62
2022/04/23 05:15:14;;;;;;;13.37;4.27;;;;;;;4.94;66.69;101680.78;5070911;28;20028;-61
2022/04/23 05:17:39;;;;;;;6.00;3.43;;;;;;;4.92;66.66;101687.94;5071578;28;20032;-62
2022/04/23 05:20:05;;;;;;;8.53;2.70;;;;;;;4.93;66.52;101672.97;5071277;28;20037;-61
2022/04/23 05:22:31;;;;;;;3.60;3.30;;;;;;;4.97;66.78;101695.56;5071095;28;20032;-61
2022/04/23 05:24:57;;;;;;;10.67;3.23;;;;;;;4.76;66.36;101666.16;5073643;28;20286;-61
2022/04/23 05:27:26;;;;;;;16.47;3.30;;;;;;;4.95;66.08;101694.81;5074537;28;20044;-63
2022/04/23 05:29:51;;;;;;;6.32;2.75;;;;;;;4.97;66.45;101685.00;5074226;28;20359;-61
2022/04/23 05:32:17;;;;;;;6.63;2.57;;;;;;;5.08;65.42;101687.75;5074049;28;20131;-62
2022/04/23 05:34:43;;;;;;;6.50;2.90;;;;;;;5.20;65.07;101689.56;5074720;28;20048;-62
2022/04/23 05:37:09;;;;;;;3.43;3.13;;;;;;;5.32;64.96;101708.16;5074311;28;20423;-63
2022/04/23 05:39:34;;;;;;;5.97;2.87;;;;;;;5.34;65.08;101685.09;5073042;28;20043;-62
2022/04/23 05:42:00;;;;;;;6.27;2.87;;;;;;;5.47;64.02;101693.84;5074051;28;20086;-65
2022/04/23 05:44:25;;;;;;;6.80;3.10;;;;;;;5.56;63.67;101693.25;5074304;28;20082;-71
2022/04/23 05:46:51;;;;;;;4.93;2.60;;;;;;;5.64;63.23;101696.19;5074535;28;20037;-64
2022/04/23 05:49:16;;;;;;;4.03;2.70;;;;;;;5.63;62.31;101683.06;5074417;28;20033;-62
2022/04/23 05:51:41;;;;;;;5.70;2.27;;;;;;;5.69;62.36;101709.91;5074498;28;20086;-62
2022/04/23 05:54:07;;;;;;;26.93;3.10;;;;;;;5.37;62.38;101675.16;5074772;28;20119;-71
2022/04/23 05:56:32;;;;;;;5.90;2.20;;;;;;;5.48;62.35;101708.75;5074095;28;20040;-63
2022/04/23 05:58:58;;;;;;;6.63;2.67;;;;;;;5.47;62.41;101696.50;5073904;28;20051;-64
2022/04/23 06:01:24;;;;;;;13.07;2.97;;;;;;;5.52;62.58;101708.47;5074565;28;20033;-64
2022/04/23 06:03:50;;;;;;;3.67;2.50;;;;;;;5.61;61.94;101706.97;5074153;28;20468;-64
2022/04/23 06:06:15;;;;;;;7.27;2.83;;;;;;;5.69;62.18;101707.25;5073810;28;20024;-65
2022/04/23 06:08:42;;;;;;;6.40;2.20;;;;;;;5.78;61.44;101696.06;5073675;28;20263;-69
2022/04/23 06:11:07;;;;;;;9.80;2.27;;;;;;;5.84;60.89;101697.41;5073805;28;20143;-68
2022/04/23 06:13:33;;;;;;;3.37;2.23;;;;;;;5.81;61.19;101693.19;5074303;28;20393;-74
2022/04/23 06:15:58;;;;;;;5.93;2.17;;;;;;;5.93;60.49;101703.88;5074154;28;20511;-66
2022/04/23 06:18:25;;;;;;;7.40;2.30;;;;;;;5.95;60.37;101704.59;5073872;28;20491;-64
2022/04/23 06:20:51;;;;;;;3.37;2.27;;;;;;;5.90;60.62;101697.84;5073785;28;20462;-64
2022/04/23 06:23:16;;;;;;;14.80;3.27;;;;;;;5.85;60.31;101693.81;5073924;28;20279;-66
2022/04/23 06:25:44;;;;;;;4.27;2.30;;;;;;;5.87;60.45;101695.41;5075471;28;20151;-64
2022/04/23 06:28:10;;;;;;;5.97;2.70;;;;;;;5.93;60.75;101690.66;5082179;28;20055;-66
2022/04/23 06:30:39;;;;;;;11.13;2.33;;;;;;;6.02;59.58;101692.63;5075157;28;20270;-64
2022/04/23 06:33:04;;;;;;;11.75;3.22;;;;;;;5.96;59.36;101711.59;5074635;28;20355;-66
2022/04/23 06:35:30;;;;;;;4.43;2.50;;;;;;;5.86;60.01;101701.63;5073281;28;20139;-66
2022/04/23 06:37:57;;;;;;;3.50;2.87;;;;;;;5.97;59.77;101702.69;5074041;28;20039;-65
2022/04/23 06:40:22;;;;;;;8.50;2.80;;;;;;;6.06;59.27;101696.72;5073553;28;20514;-69
2022/04/23 06:42:48;;;;;;;4.33;2.83;;;;;;;6.21;59.27;101707.06;5073483;28;20802;-66
2022/04/23 06:45:14;;;;;;;6.43;2.57;;;;;;;6.37;59.06;101705.97;5073722;28;20050;-64
2022/04/23 06:47:39;;;;;;;3.90;2.73;;;;;;;6.30;58.36;101700.25;5073765;28;20124;-63
2022/04/23 06:50:06;;;;;;;6.77;2.30;;;;;;;6.34;58.69;101700.88;5073355;28;20041;-67
2022/04/23 06:52:31;;;;;;;6.80;2.70;;;;;;;6.34;58.34;101717.59;5073538;28;20032;-66
2022/04/23 06:54:58;;;;;;;5.73;2.57;;;;;;;6.40;58.50;101721.59;5073005;28;20305;-66
2022/04/23 06:57:24;;;;;;;20.57;4.10;;;;;;;6.29;58.13;101716.22;5073320;28;20036;-70
2022/04/23 06:59:50;;;;;;;6.60;2.57;;;;;;;6.29;58.03;101729.47;5073483;28;20267;-62
2022/04/23 07:02:17;;;;;;;7.00;2.20;;;;;;;6.19;58.27;101705.50;5073818;28;20324;-64
2022/04/23 07:04:43;;;;;;;7.63;2.60;;;;;;;6.25;57.94;101697.09;5073097;28;20317;-65
2022/04/23 07:07:10;;;;;;;11.37;2.90;;;;;;;6.43;57.67;101719.59;5073177;28;20299;-68
2022/04/23 07:09:37;;;;;;;6.00;3.00;;;;;;;6.52;57.35;101731.28;5073079;28;20036;-63
2022/04/23 07:12:03;;;;;;;10.40;2.63;;;;;;;6.42;57.30;101720.53;5073147;28;20271;-64
2022/04/23 07:14:29;;;;;;;4.80;2.00;;;;;;;6.40;57.38;101732.19;5073161;28;20301;-64
2022/04/23 07:16:54;;;;;;;4.80;1.90;;;;;;;6.41;56.97;101729.44;5072477;28;20271;-71
2022/04/23 07:19:20;;;;;;;5.47;1.73;;;;;;;6.44;56.77;101742.44;5073386;28;20028;-70
2022/04/23 07:21:48;;;;;;;12.27;1.95;;;;;;;6.38;56.64;101721.72;5071153;28;20397;-67
2022/04/23 07:24:15;;;;;;;35.07;4.20;;;;;;;6.39;57.20;101734.00;5072293;28;20093;-67
2022/04/23 07:26:41;;;;;;;9.97;3.03;;;;;;;6.47;56.98;101728.97;5072686;28;20056;-71
2022/04/23 07:29:09;;;;;;;7.30;1.87;;;;;;;6.61;56.98;101727.09;5071775;28;20355;-67
2022/04/23 07:31:36;;;;;;;5.13;2.03;;;;;;;6.72;56.82;101721.88;5072905;28;20278;-70
2022/04/23 07:39:30;;;;;;;10.20;2.03;;;;;;;6.79;55.89;101723.09;5072950;28;20271;-69
2022/04/23 07:41:55;;;;;;;3.30;1.83;;;;;;;6.84;56.47;101728.88;5072865;28;20271;-71
2022/04/23 07:44:22;;;;;;;1.80;1.70;;;;;;;6.90;56.34;101728.44;5073082;28;20518;-68
2022/04/23 07:46:48;;;;;;;7.67;2.87;;;;;;;6.99;55.80;101719.81;5072041;28;20040;-69
2022/04/23 07:49:13;;;;;;;3.60;1.87;;;;;;;7.00;55.09;101710.91;5074147;28;20282;-65
2022/04/23 07:51:41;;;;;;;6.93;2.00;;;;;;;7.18;54.89;101726.34;5073442;28;20033;-68
2022/04/23 07:54:06;;;;;;;5.37;2.00;;;;;;;7.06;54.69;101726.31;5078141;28;20113;-69
2022/04/23 07:56:32;;;;;;;7.80;2.10;;;;;;;7.07;55.88;101730.66;5073991;28;20298;-71
2022/04/23 07:58:57;;;;;;;6.07;2.20;;;;;;;7.11;55.98;101726.81;5067834;28;20098;-68
2022/04/23 08:01:23;;;;;;;8.30;2.20;;;;;;;7.22;55.85;101738.38;5069195;28;20117;-70
2022/04/23 08:03:48;;;;;;;5.83;2.03;;;;;;;7.38;54.93;101741.56;5052594;28;20119;-68
2022/04/23 08:06:13;;;;;;;4.03;1.83;;;;;;;7.43;55.44;101731.44;5052778;28;20036;-65
2022/04/23 08:08:39;;;;;;;8.93;2.37;;;;;;;7.45;54.96;101742.78;5052505;28;20040;-64
2022/04/23 08:11:06;;;;;;;4.13;2.03;;;;;;;7.48;54.78;101737.22;5053003;28;20519;-68
2022/04/23 08:13:32;;;;;;;4.17;1.90;;;;;;;7.57;54.23;101738.34;5063224;28;20048;-66
2022/04/23 08:15:59;;;;;;;5.67;2.20;;;;;;;7.57;54.41;101739.19;5071973;28;20464;-66
2022/04/23 08:18:26;;;;;;;8.63;1.67;;;;;;;7.59;54.01;101724.00;5072384;28;20047;-67
2022/04/23 08:20:52;;;;;;;7.77;1.80;;;;;;;7.48;54.02;101747.84;5072222;28;20043;-67
2022/04/23 08:23:19;;;;;;;8.20;1.90;;;;;;;7.44;53.00;101731.31;5071956;28;20040;-66
2022/04/23 08:25:46;;;;;;;5.60;1.47;;;;;;;7.45;54.18;101733.00;5070571;28;20592;-65
2022/04/23 08:30:59;;;;;;;10.87;2.47;;;;;;;7.56;53.54;101753.41;5051574;28;20651;-66
2022/04/23 08:33:57;;;;;;;3.83;1.50;;;;;;;7.55;53.21;101737.63;5051967;28;20043;-67
2022/04/23 08:36:10;;;;;;;3.27;1.87;;;;;;;7.52;53.34;101737.84;5051298;28;20040;-67
2022/04/23 08:38:36;;;;;;;7.57;1.70;;;;;;;7.11;53.25;101697.69;5051186;28;20025;-67
2022/04/23 08:41:04;;;;;;;19.23;2.80;;;;;;;7.37;53.46;101730.13;5051663;28;20443;-67
2022/04/23 08:43:31;;;;;;;7.50;1.92;;;;;;;7.46;53.20;101740.00;5051407;28;20060;-68
2022/04/23 08:45:57;;;;;;;3.90;1.50;;;;;;;7.47;53.88;101747.00;5051367;28;20041;-68
2022/04/23 08:48:26;;;;;;;7.77;1.83;;;;;;;7.37;54.18;101735.41;5052274;28;20035;-67
2022/04/23 08:50:59;;;;;;;2.40;1.50;;;;;;;7.50;54.05;101735.31;5052036;28;20492;-68
2022/04/23 08:53:27;;;;;;;16.73;4.03;;;;;;;7.66;53.23;101734.97;5051382;28;20511;-66
2022/04/23 08:55:53;;;;;;;3.92;1.90;;;;;;;7.69;53.80;101735.56;5051997;28;20409;-69
2022/04/23 08:58:19;;;;;;;2.60;1.30;;;;;;;7.69;53.34;101750.63;5052211;28;20037;-69
2022/04/23 09:00:45;;;;;;;5.57;1.80;;;;;;;7.56;53.51;101729.53;5038697;28;20063;-70
2022/04/23 09:03:14;;;;;;;14.13;2.00;;;;;;;7.53;53.48;101761.59;5059301;28;20032;-71
2022/04/23 09:05:40;;;;;;;6.43;1.83;;;;;;;7.42;53.89;101758.91;5055711;28;20061;-67
2022/04/23 09:08:07;;;;;;;4.87;1.63;;;;;;;7.42;53.72;101756.25;5057610;28;20094;-67
2022/04/23 09:10:44;;;;;;;3.43;1.20;;;;;;;7.31;53.24;101732.41;5055188;28;20141;-68
2022/04/23 09:13:10;;;;;;;7.03;1.80;;;;;;;7.51;53.32;101752.03;5055378;28;20090;-67
2022/04/23 09:24:10;;;;;;;9.53;1.77;;;;;;;7.76;51.75;101694.34;5055039;28;20037;-67
2022/04/23 09:26:40;;;;;;;5.63;2.37;;;;;;;7.96;52.05;101731.69;5054583;28;20143;-67
2022/04/23 09:29:18;;;;;;;6.87;1.97;;;;;;;7.99;52.51;101757.97;5054842;28;20067;-65
2022/04/23 09:31:44;;;;;;;10.25;1.40;;;;;;;8.04;51.87;101750.50;5054803;28;20045;-66
2022/04/23 09:34:21;;;;;;;2.53;1.60;;;;;;;7.93;52.17;101742.56;5054885;28;20421;-65
2022/04/23 09:36:55;;;;;;;2.63;1.60;;;;;;;8.10;51.91;101751.84;5054838;28;20029;-65
2022/04/23 09:39:38;;;;;;;4.43;1.40;;;;;;;8.24;51.26;101762.19;5054691;28;20048;-69
2022/04/23 09:42:17;;;;;;;2.30;1.20;;;;;;;8.08;51.53;101741.31;5054595;28;20040;-65
2022/04/23 09:44:46;;;;;;;5.43;1.97;;;;;;;8.07;52.04;101766.16;5054453;28;20485;-67
2022/04/23 09:47:29;;;;;;;;;;;;;;;8.18;51.37;101765.34;5054852;28;20430;-68
2022/04/23 09:49:55;;;;;;;5.27;1.40;;;;;;;8.18;51.15;101763.53;5055293;28;19916;-67
2022/04/23 09:52:28;;;;;;;5.53;1.97;;;;;;;8.15;51.07;101769.09;5055352;28;20090;-70
2022/04/23 09:54:55;;;;;;;11.23;2.20;;;;;;;8.03;51.43;101778.84;5054852;28;20041;-71
2022/04/23 09:57:22;;;;;;;4.87;1.73;;;;;;;8.09;50.94;101769.53;5054600;28;20041;-72
2022/04/23 09:59:52;;;;;;;4.40;1.70;;;;;;;8.17;51.49;101766.31;5054370;28;20041;-68
2022/04/23 10:02:19;;;;;;;8.83;1.60;;;;;;;8.11;51.36;101762.34;5057137;28;20029;-71
2022/04/23 10:04:46;;;;;;;6.03;1.87;;;;;;;8.15;51.85;101763.78;5064490;28;20040;-72
2022/04/23 10:07:17;;;;;;;3.40;1.53;;;;;;;8.24;50.96;101773.63;5065689;28;20059;-69
2022/04/23 10:09:45;;;;;;;10.60;2.40;;;;;;;8.26;50.95;101765.56;5070274;28;20028;-71
2022/04/23 10:12:19;;;;;;;10.32;3.03;;;;;;;8.34;51.07;101757.84;5062933;28;20059;-74
2022/04/23 10:14:59;;;;;;;8.50;1.77;;;;;;;8.52;50.77;101771.44;5058095;28;20416;-75
2022/04/23 10:17:25;;;;;;;5.30;1.50;;;;;;;8.54;50.65;101753.59;5055062;28;20029;-69
2022/04/23 10:19:52;;;;;;;6.73;1.83;;;;;;;8.47;51.05;101769.16;5054937;28;20036;-70
2022/04/23 10:22:37;;;;;;;2.47;1.60;;;;;;;8.48;50.48;101762.06;5054168;28;20112;-72
2022/04/23 10:25:08;;;;;;;5.13;1.87;;;;;;;8.42;50.79;101775.81;5052810;28;20412;-68
2022/04/23 10:27:35;;;;;;;2.73;1.37;;;;;;;8.40;50.45;101751.22;5053652;28;20127;-70
2022/04/23 10:30:04;;;;;;;3.10;1.60;;;;;;;8.59;49.42;101760.19;5054450;28;20036;-69
2022/04/23 10:32:41;;;;;;;5.85;1.95;;;;;;;8.50;49.76;101750.34;5054616;28;20029;-72
2022/04/23 10:35:18;;;;;;;6.60;1.73;;;;;;;8.37;49.85;101758.44;5054481;28;20040;-73
2022/04/23 10:37:46;;;;;;;2.73;2.20;;;;;;;8.46;49.32;101753.38;5052394;28;20049;-71
2022/04/23 10:40:15;;;;;;;6.83;2.17;;;;;;;8.53;49.95;101757.22;5053530;28;20048;-72
2022/04/23 10:43:07;;;;;;;5.25;2.05;;;;;;;8.62;48.94;101743.16;5053896;28;20094;-72
2022/04/23 10:45:35;;;;;;;28.53;2.77;;;;;;;8.53;49.46;101746.59;5053422;28;20266;-68
2022/04/23 10:48:33;;;;;;;5.90;2.10;;;;;;;8.54;48.73;101769.50;5053801;28;20137;-65
2022/04/23 10:51:15;;;;;;;8.23;1.70;;;;;;;8.35;49.27;101749.75;5019779;28;20496;-65
2022/04/23 10:53:43;;;;;;;5.90;1.43;;;;;;;8.28;49.75;101769.78;5053430;28;20119;-68
2022/04/23 10:56:13;;;;;;;4.57;1.42;;;;;;;8.20;49.68;101777.50;5053231;28;20090;-64
2022/04/23 10:58:40;;;;;;;4.00;1.93;;;;;;;8.17;50.28;101772.44;5053995;28;20033;-67
2022/04/23 11:01:21;;;;;;;14.83;2.33;;;;;;;8.20;49.92;101777.50;5055022;28;20079;-65
2022/04/23 11:03:52;;;;;;;4.20;1.30;;;;;;;8.31;49.17;101752.75;5057572;28;20045;-70
2022/04/23 11:12:36;;;;;;;2.90;1.67;;;;;;;8.38;49.54;101748.66;5058413;28;20037;-65
2022/04/23 11:15:13;;;;;;;3.20;1.53;;;;;;;8.47;48.36;101747.09;5058034;28;20059;-66
2022/04/23 11:17:38;;;;;;;4.47;2.10;;;;;;;8.51;48.90;101738.75;5055115;28;20033;-66
2022/04/23 11:20:05;;;;;;;2.80;1.70;;;;;;;8.58;48.16;101733.78;5053824;28;20043;-67
2022/04/23 11:22:30;;;;;;;4.60;2.00;;;;;;;8.58;48.79;101741.75;5054004;28;20511;-68
2022/04/23 11:24:57;;;;;;;2.33;1.97;;;;;;;8.65;48.97;101740.25;5056161;28;20044;-68
2022/04/23 11:27:28;;;;;;;1.77;1.43;;;;;;;8.74;48.18;101734.22;5076463;28;20052;-68
2022/04/23 11:29:56;;;;;;;11.60;2.80;;;;;;;8.81;48.68;101740.69;5074955;28;20044;-69
2022/04/23 11:32:28;;;;;;;9.57;1.58;;;;;;;8.78;48.70;101730.31;5075746;28;20036;-70
2022/04/23 11:34:59;;;;;;;5.67;1.60;;;;;;;8.85;48.23;101731.50;5077572;28;20052;-71
2022/04/23 11:37:30;;;;;;;7.17;1.63;;;;;;;8.93;48.28;101723.72;5073570;28;20093;-66
2022/04/23 11:40:13;;;;;;;6.83;1.90;;;;;;;9.05;47.70;101726.34;5072741;28;20035;-67
2022/04/23 11:42:46;;;;;;;4.10;1.30;;;;;;;8.95;47.55;101721.78;5073422;28;20036;-69
2022/04/23 11:45:17;;;;;;;2.63;1.40;;;;;;;8.98;47.49;101726.00;5073848;28;20059;-66
2022/04/23 11:47:42;;;;;;;5.00;1.80;;;;;;;9.00;47.74;101732.88;5074259;28;20028;-69
2022/04/23 11:50:23;;;;;;;9.23;1.97;;;;;;;8.82;47.76;101725.59;5077112;28;20036;-69
2022/04/23 11:53:01;;;;;;;2.57;1.40;;;;;;;8.84;47.75;101723.66;5075127;28;20036;-72
2022/04/23 11:55:28;;;;;;;6.85;1.63;;;;;;;8.80;48.34;101731.03;5080490;28;20403;-64
2022/04/23 11:57:58;;;;;;;11.10;2.07;;;;;;;8.72;48.27;101719.38;5082418;28;20127;-67
2022/04/23 12:00:25;;;;;;;4.77;1.77;;;;;;;8.72;48.49;101730.00;5079288;28;20487;-65